Time;durP1;ratioP1;P1;durP2;ratioP2;P2;SDS_P1;SDS_P2;PMS_P1;PMS_P2;Temp;Humidity;BMP_temperature;BMP_pressure;BME280_temperature;BME280_humidity;BME280_pressure;Samples;Min_cycle;Max_cycle;Signal;HPM_P1;HPM_P2
2022/07/13 00:01:07;;;;;;;;;;;;;;;21.40;100.00;99471.59;5094620;28;20023;-77
2022/07/13 00:03:34;;;;;;;;;;;;;;;21.70;100.00;99471.66;5094310;28;19985;-77
2022/07/13 00:06:02;;;;;;;;;;;;;;;21.66;100.00;99471.06;5059675;28;19942;-77
2022/07/13 00:08:29;;;;;;;;;;;;;;;21.42;100.00;99473.19;5092830;28;19931;-77
2022/07/13 00:10:57;;;;;;;;;;;;;;;21.36;100.00;99478.75;5093027;28;20365;-77
2022/07/13 00:13:24;;;;;;;;;;;;;;;21.49;100.00;99484.19;5093010;28;19960;-77
2022/07/13 00:15:51;;;;;;;;;;;;;;;21.39;100.00;99481.41;5094028;28;19935;-77
2022/07/13 00:18:18;;;;;;;;;;;;;;;21.37;100.00;99483.19;5092936;28;19924;-77
2022/07/13 00:20:45;;;;;;;;;;;;;;;21.41;100.00;99483.78;5093289;28;19924;-77
2022/07/13 00:23:12;;;;;;;;;;;;;;;21.45;100.00;99478.69;5093707;28;19963;-77
2022/07/13 00:25:39;;;;;;;;;;;;;;;21.55;100.00;99477.34;5075987;28;20294;-77
2022/07/13 00:28:06;;;;;;;;;;;;;;;21.52;100.00;99477.53;5075873;28;19963;-77
2022/07/13 00:30:34;;;;;;;;;;;;;;;21.40;100.00;99482.22;5092761;28;20401;-77
2022/07/13 00:33:01;;;;;;;;;;;;;;;21.53;100.00;99488.41;5092658;28;19927;-76
2022/07/13 00:35:29;;;;;;;;;;;;;;;21.44;100.00;99491.34;5075876;28;19924;-77
2022/07/13 00:37:56;;;;;;;;;;;;;;;21.44;100.00;99482.81;5092335;28;20016;-77
2022/07/13 00:40:23;;;;;;;;;;;;;;;21.34;100.00;99490.63;5092447;28;20252;-77
2022/07/13 00:42:50;;;;;;;;;;;;;;;21.65;100.00;99487.34;5092445;28;20291;-77
2022/07/13 00:45:18;;;;;;;;;;;;;;;21.12;100.00;99478.81;5092327;28;19924;-77
2022/07/13 00:47:47;;;;;;;;;;;;;;;21.00;100.00;99493.25;5091897;28;19932;-77
2022/07/13 00:50:14;;;;;;;;;;;;;;;21.27;100.00;99491.00;5092358;28;19924;-77
2022/07/13 00:52:42;;;;;;;;;;;;;;;21.29;100.00;99499.03;5125990;27;19932;-77
2022/07/13 00:55:10;;;;;;;;;;;;;;;21.30;100.00;99494.91;5092355;28;19974;-77
2022/07/13 00:57:37;;;;;;;;;;;;;;;21.24;100.00;99491.19;5092248;28;19978;-77
2022/07/13 01:00:07;;;;;;;;;;;;;;;21.05;100.00;99507.56;5075554;28;20393;-77
2022/07/13 01:02:41;;;;;;;;;;;;;;;20.89;100.00;99507.16;5092068;28;19924;-77
2022/07/13 01:05:10;;;;;;;;;;;;;;;20.97;100.00;99502.75;5092572;28;19924;-77
2022/07/13 01:07:37;;;;;;;;;;;;;;;20.87;100.00;99501.97;5091827;28;19969;-77
2022/07/13 01:10:08;;;;;;;;;;;;;;;20.48;100.00;99511.66;5093368;28;20302;-77
2022/07/13 01:12:36;;;;;;;;;;;;;;;20.24;100.00;99493.78;5073343;28;20363;-77
2022/07/13 01:15:04;;;;;;;;;;;;;;;20.48;100.00;99496.66;5075382;28;20018;-76
2022/07/13 01:17:31;;;;;;;;;;;;;;;20.53;100.00;99496.81;5091958;28;20350;-77
2022/07/13 01:20:00;;;;;;;;;;;;;;;20.38;100.00;99498.00;5093179;28;19935;-76
2022/07/13 01:22:35;;;;;;;;;;;;;;;20.71;100.00;99505.25;5074984;28;20294;-77
2022/07/13 01:25:05;;;;;;;;;;;;;;;20.60;100.00;99504.97;5091742;28;20422;-77
2022/07/13 01:27:34;;;;;;;;;;;;;;;20.59;100.00;99505.44;5092060;28;19924;-77
2022/07/13 01:30:01;;;;;;;;;;;;;;;20.62;100.00;99518.69;5091932;28;19925;-76
2022/07/13 01:32:29;;;;;;;;;;;;;;;21.07;100.00;99510.72;5074810;28;19961;-77
2022/07/13 01:34:55;;;;;;;;;;;;;;;20.83;100.00;99517.63;5074921;28;20061;-77
2022/07/13 01:37:23;;;;;;;;;;;;;;;20.98;100.00;99507.16;5058312;28;20267;-77
2022/07/13 01:39:50;;;;;;;;;;;;;;;21.02;100.00;99505.69;5092966;28;19960;-76
2022/07/13 01:42:17;;;;;;;;;;;;;;;20.91;100.00;99510.31;5075073;28;19932;-76
2022/07/13 01:44:46;;;;;;;;;;;;;;;20.80;100.00;99508.03;5074866;28;19924;-77
2022/07/13 01:47:14;;;;;;;;;;;;;;;20.96;100.00;99509.69;5125340;28;19924;-77
2022/07/13 01:49:40;;;;;;;;;;;;;;;20.68;100.00;99511.09;5074808;28;20361;-77
2022/07/13 01:52:08;;;;;;;;;;;;;;;20.65;100.00;99506.38;5091417;28;19932;-77
2022/07/13 01:54:35;;;;;;;;;;;;;;;20.97;100.00;99506.38;5074796;28;19931;-77
2022/07/13 01:57:02;;;;;;;;;;;;;;;20.91;100.00;99507.47;5074918;28;20488;-77
2022/07/13 01:59:29;;;;;;;;;;;;;;;21.22;100.00;99505.88;5075116;28;20031;-77
2022/07/13 02:01:57;;;;;;;;;;;;;;;21.13;100.00;99497.41;5095460;28;19931;-77
2022/07/13 02:04:24;;;;;;;;;;;;;;;21.04;100.00;99494.63;5095352;28;19981;-77
2022/07/13 02:06:51;;;;;;;;;;;;;;;21.17;100.00;99491.56;5095184;28;20389;-77
2022/07/13 02:09:19;;;;;;;;;;;;;;;20.81;100.00;99498.22;5095477;28;20295;-77
2022/07/13 02:11:47;;;;;;;;;;;;;;;20.90;100.00;99503.09;5095396;28;20271;-77
2022/07/13 02:14:14;;;;;;;;;;;;;;;21.11;100.00;99499.94;5095325;28;19931;-77
2022/07/13 02:16:41;;;;;;;;;;;;;;;20.72;100.00;99506.03;5095080;28;19924;-77
2022/07/13 02:19:08;;;;;;;;;;;;;;;20.76;100.00;99512.31;5094889;28;19931;-77
2022/07/13 02:21:36;;;;;;;;;;;;;;;20.62;100.00;99510.97;5095197;28;19924;-77
2022/07/13 02:24:03;;;;;;;;;;;;;;;20.69;100.00;99510.59;5095147;28;19947;-77
2022/07/13 02:26:30;;;;;;;;;;;;;;;20.51;100.00;99495.72;5078323;28;20009;-77
2022/07/13 02:28:57;;;;;;;;;;;;;;;20.51;100.00;99495.72;5095117;28;20383;-77
2022/07/13 02:31:24;;;;;;;;;;;;;;;20.16;100.00;99495.38;5078113;28;19931;-77
2022/07/13 02:33:51;;;;;;;;;;;;;;;19.92;100.00;99500.16;5094630;28;19924;-77
2022/07/13 02:36:19;;;;;;;;;;;;;;;19.70;100.00;99499.59;5095169;28;19938;-76
2022/07/13 02:38:48;;;;;;;;;;;;;;;19.43;100.00;99508.88;5078349;28;20174;-77
2022/07/13 02:41:16;;;;;;;;;;;;;;;19.45;100.00;99516.91;5094814;28;19931;-77
2022/07/13 02:43:43;;;;;;;;;;;;;;;19.38;100.00;99508.75;5077889;28;20023;-77
2022/07/13 02:46:11;;;;;;;;;;;;;;;19.99;100.00;99518.91;5095950;28;19924;-77
2022/07/13 02:48:38;;;;;;;;;;;;;;;20.01;100.00;99519.22;5094390;28;19931;-77
2022/07/13 02:51:05;;;;;;;;;;;;;;;19.87;100.00;99517.84;5094571;28;19931;-77
2022/07/13 02:53:32;;;;;;;;;;;;;;;19.66;100.00;99518.78;5094574;28;19935;-77
2022/07/13 02:55:59;;;;;;;;;;;;;;;19.73;100.00;99522.09;5094475;28;19932;-77
2022/07/13 02:58:29;;;;;;;;;;;;;;;19.99;100.00;99524.56;5094434;28;20004;-76
2022/07/13 03:00:56;;;;;;;;;;;;;;;19.83;100.00;99514.34;5094463;28;20024;-77
2022/07/13 03:03:24;;;;;;;;;;;;;;;19.55;100.00;99524.16;5094148;28;19928;-77
2022/07/13 03:05:51;;;;;;;;;;;;;;;19.46;100.00;99524.94;5077318;28;19928;-77
2022/07/13 03:08:18;;;;;;;;;;;;;;;19.32;100.00;99513.47;5077527;28;20005;-76
2022/07/13 03:10:46;;;;;;;;;;;;;;;19.62;100.00;99507.63;5093651;28;20412;-77
2022/07/13 03:13:13;;;;;;;;;;;;;;;19.55;100.00;99510.78;5094208;28;20382;-77
2022/07/13 03:15:40;;;;;;;;;;;;;;;19.70;100.00;99523.03;5094250;28;19924;-77
2022/07/13 03:18:07;;;;;;;;;;;;;;;19.62;100.00;99533.13;5093903;28;19924;-77
2022/07/13 03:20:36;;;;;;;;;;;;;;;19.31;100.00;99528.91;5094141;28;20006;-76
2022/07/13 03:23:03;;;;;;;;;;;;;;;19.62;100.00;99526.69;5094194;28;20357;-77
2022/07/13 03:25:30;;;;;;;;;;;;;;;19.79;100.00;99524.28;5093838;28;19998;-77
2022/07/13 03:27:57;;;;;;;;;;;;;;;20.00;100.00;99523.31;5077226;28;19946;-77
2022/07/13 03:30:24;;;;;;;;;;;;;;;19.67;100.00;99518.31;5093942;28;19924;-76
2022/07/13 03:32:52;;;;;;;;;;;;;;;19.85;100.00;99537.38;5076949;28;19924;-77
2022/07/13 03:35:20;;;;;;;;;;;;;;;19.99;100.00;99535.91;5093753;28;19924;-77
2022/07/13 03:37:48;;;;;;;;;;;;;;;19.66;100.00;99547.94;5093685;28;19932;-77
2022/07/13 03:40:16;;;;;;;;;;;;;;;19.77;100.00;99543.81;5093704;28;19924;-77
2022/07/13 03:42:46;;;;;;;;;;;;;;;19.32;100.00;99548.25;5093687;28;20057;-77
2022/07/13 03:45:14;;;;;;;;;;;;;;;19.17;100.00;99557.81;5093409;28;20031;-77
2022/07/13 03:47:41;;;;;;;;;;;;;;;19.17;100.00;99554.97;5076406;28;20495;-76
2022/07/13 03:50:09;;;;;;;;;;;;;;;18.88;100.00;99557.44;5076613;28;19950;-76
2022/07/13 03:52:39;;;;;;;;;;;;;;;18.61;100.00;99555.31;5093492;28;19958;-76
2022/07/13 03:55:08;;;;;;;;;;;;;;;18.82;100.00;99564.94;5076398;28;19928;-77
2022/07/13 03:57:35;;;;;;;;;;;;;;;18.72;100.00;99557.69;5127341;27;19924;-76
2022/07/13 04:00:03;;;;;;;;;;;;;;;18.66;100.00;99563.16;5093239;28;20336;-77
2022/07/13 04:02:40;;;;;;;;;;;;;;;18.65;100.00;99560.81;5094122;28;19946;-77
2022/07/13 04:05:10;;;;;;;;;;;;;;;18.31;100.00;99553.22;5093083;28;19923;-77
2022/07/13 04:07:40;;;;;;;;;;;;;;;18.60;100.00;99567.09;5093049;28;20171;-77
2022/07/13 04:10:07;;;;;;;;;;;;;;;18.41;100.00;99560.56;5059681;28;19924;-77
2022/07/13 04:12:36;;;;;;;;;;;;;;;18.46;100.00;99559.97;5092937;28;19924;-76
2022/07/13 04:15:03;;;;;;;;;;;;;;;18.64;100.00;99562.88;5092661;28;20483;-76
2022/07/13 04:17:32;;;;;;;;;;;;;;;18.32;100.00;99563.31;5092797;28;20327;-76
2022/07/13 04:20:02;;;;;;;;;;;;;;;18.34;100.00;99563.66;5075806;28;20284;-76
2022/07/13 04:22:29;;;;;;;;;;;;;;;18.00;100.00;99558.09;5093368;28;19947;-76
2022/07/13 04:24:57;;;;;;;;;;;;;;;17.91;100.00;99558.84;5092525;28;19924;-76
2022/07/13 04:27:25;;;;;;;;;;;;;;;18.07;100.00;99562.72;5076100;28;19924;-76
2022/07/13 04:29:52;;;;;;;;;;;;;;;17.83;100.00;99570.84;5075477;28;19924;-76
2022/07/13 04:32:19;;;;;;;;;;;;;;;17.93;100.00;99583.81;5093928;28;19931;-76
2022/07/13 04:34:47;;;;;;;;;;;;;;;18.42;100.00;99592.47;5092537;28;20093;-77
2022/07/13 04:37:14;;;;;;;;;;;;;;;18.71;100.00;99592.91;5092527;28;19928;-77
2022/07/13 04:39:42;;;;;;;;;;;;;;;17.91;100.00;99594.78;5092727;28;20397;-76
2022/07/13 04:42:10;;;;;;;;;;;;;;;18.47;100.00;99578.50;5075638;28;20336;-77
2022/07/13 04:44:39;;;;;;;;;;;;;;;18.45;100.00;99569.69;5092069;28;19931;-76
2022/07/13 04:47:06;;;;;;;;;;;;;;;18.41;100.00;99568.25;5075432;28;20401;-77
2022/07/13 04:49:33;;;;;;;;;;;;;;;18.26;100.00;99579.31;5092386;28;19931;-76
2022/07/13 04:52:00;;;;;;;;;;;;;;;18.19;100.00;99588.06;5093626;28;19924;-76
2022/07/13 04:54:29;;;;;;;;;;;;;;;17.90;100.00;99591.16;5092245;28;19924;-76
2022/07/13 04:56:57;;;;;;;;;;;;;;;18.19;100.00;99585.22;5092340;28;19924;-76
2022/07/13 04:59:25;;;;;;;;;;;;;;;18.01;100.00;99590.00;5075243;28;20447;-77
2022/07/13 05:01:53;;;;;;;;;;;;;;;17.73;100.00;99592.63;5092108;28;20004;-76
2022/07/13 05:04:21;;;;;;;;;;;;;;;17.90;100.00;99591.16;5092078;28;20406;-76
2022/07/13 05:06:48;;;;;;;;;;;;;;;17.80;100.00;99605.69;5092222;28;19924;-79
2022/07/13 05:09:15;;;;;;;;;;;;;;;17.55;100.00;99608.66;5092157;28;19931;-79
2022/07/13 05:11:43;;;;;;;;;;;;;;;18.05;100.00;99605.59;5075496;28;19924;-79
2022/07/13 05:14:10;;;;;;;;;;;;;;;18.20;100.00;99597.34;5074894;28;19924;-79
2022/07/13 05:16:37;;;;;;;;;;;;;;;18.30;100.00;99596.94;5091901;28;20007;-79
2022/07/13 05:19:05;;;;;;;;;;;;;;;18.28;100.00;99609.97;5092007;28;19928;-79
2022/07/13 05:21:36;;;;;;;;;;;;;;;18.06;100.00;99612.00;5091987;28;19924;-79
2022/07/13 05:24:03;;;;;;;;;;;;;;;18.30;100.00;99613.91;5091987;28;20007;-79
2022/07/13 05:26:30;;;;;;;;;;;;;;;17.64;100.00;99618.00;5075243;28;19928;-79
2022/07/13 05:28:57;;;;;;;;;;;;;;;17.37;100.00;99626.16;5074837;28;20015;-79
2022/07/13 05:31:27;;;;;;;;;;;;;;;17.59;100.00;99626.25;5059308;28;20279;-79
2022/07/13 05:33:55;;;;;;;;;;;;;;;17.79;100.00;99636.03;5092479;28;20337;-79
2022/07/13 05:36:28;;;;;;;;;;;;;;;17.96;100.00;99636.63;5096149;28;20009;-79
2022/07/13 05:38:55;;;;;;;;;;;;;;;18.08;100.00;99635.75;5130345;27;19935;-79
2022/07/13 05:41:22;;;;;;;;;;;;;;;18.04;100.00;99637.91;5096068;28;19924;-79
2022/07/13 05:43:50;;;;;;;;;;;;;;;17.83;100.00;99635.88;5112659;28;19930;-79
2022/07/13 05:46:17;;;;;;;;;;;;;;;18.18;100.00;99640.22;5097088;28;19924;-79
2022/07/13 05:48:44;;;;;;;;;;;;;;;18.20;100.00;99626.41;5079048;28;19950;-79
2022/07/13 05:51:11;;;;;;;;;;;;;;;17.76;100.00;99628.47;5095822;28;20371;-79
2022/07/13 05:53:59;;;;;;;;;;;;;;;17.59;100.00;99637.56;5095626;28;19947;-79
2022/07/13 05:56:35;;;;;;;;;;;;;;;17.91;100.00;99637.19;5095482;28;20050;-79
2022/07/13 05:59:02;;;;;;;;;;;;;;;18.09;100.00;99631.69;5096859;28;19924;-79
2022/07/13 06:01:30;;;;;;;;;;;;;;;17.76;100.00;99641.78;5095614;28;19924;-79
2022/07/13 06:03:58;;;;;;;;;;;;;;;17.90;100.00;99644.13;5096801;28;19924;-79
2022/07/13 06:06:25;;;;;;;;;;;;;;;18.07;100.00;99639.81;5096450;28;19928;-79
2022/07/13 06:08:52;;;;;;;;;;;;;;;18.31;100.00;99632.44;5096695;28;19928;-79
2022/07/13 06:11:19;;;;;;;;;;;;;;;18.36;100.00;99640.34;5095117;28;19928;-79
2022/07/13 06:13:46;;;;;;;;;;;;;;;18.41;100.00;99631.28;5096573;28;19951;-79
2022/07/13 06:16:14;;;;;;;;;;;;;;;18.21;100.00;99644.16;5096329;28;20371;-79
2022/07/13 06:18:41;;;;;;;;;;;;;;;18.73;100.00;99632.88;5096423;28;19930;-79
2022/07/13 06:21:08;;;;;;;;;;;;;;;19.02;100.00;99638.97;5096465;28;20308;-79
2022/07/13 06:23:35;;;;;;;;;;;;;;;18.81;100.00;99637.75;5096546;28;19928;-79
2022/07/13 06:26:02;;;;;;;;;;;;;;;19.09;100.00;99642.28;5095996;28;19969;-79
2022/07/13 06:28:29;;;;;;;;;;;;;;;19.21;100.00;99640.59;5096268;28;20019;-79
2022/07/13 06:30:56;;;;;;;;;;;;;;;19.02;100.00;99622.75;5096294;28;20290;-79
2022/07/13 06:33:23;;;;;;;;;;;;;;;19.21;100.00;99638.53;5094954;28;20322;-79
2022/07/13 06:35:51;;;;;;;;;;;;;;;19.18;100.00;99638.69;5096183;28;19924;-79
2022/07/13 06:38:20;;;;;;;;;;;;;;;19.46;100.00;99637.53;5111816;28;20419;-79
2022/07/13 06:40:47;;;;;;;;;;;;;;;19.45;100.00;99641.59;5094551;28;19924;-79
2022/07/13 06:43:15;;;;;;;;;;;;;;;19.20;100.00;99648.31;5096053;28;19932;-79
2022/07/13 06:45:42;;;;;;;;;;;;;;;19.25;100.00;99653.34;5060159;28;20329;-79
2022/07/13 06:48:09;;;;;;;;;;;;;;;18.82;100.00;99656.34;5094663;28;19965;-79
2022/07/13 06:50:36;;;;;;;;;;;;;;;18.51;100.00;99657.59;5096008;28;19931;-79
2022/07/13 06:53:04;;;;;;;;;;;;;;;18.58;100.00;99652.47;5095824;28;19954;-78
2022/07/13 06:55:31;;;;;;;;;;;;;;;18.78;100.00;99664.16;5095354;28;19924;-78
2022/07/13 06:57:58;;;;;;;;;;;;;;;18.69;100.00;99669.78;5094552;28;19924;-79
2022/07/13 07:00:25;;;;;;;;;;;;;;;18.14;100.00;99662.19;5093979;28;20052;-80
2022/07/13 07:02:52;;;;;;;;;;;;;;;18.32;100.00;99673.66;5095850;28;19932;-79
2022/07/13 07:05:20;;;;;;;;;;;;;;;18.98;100.00;99658.91;5095713;28;19931;-79
2022/07/13 07:07:47;;;;;;;;;;;;;;;19.91;100.00;99653.78;5094317;28;20367;-79
2022/07/13 07:10:14;;;;;;;;;;;;;;;20.23;100.00;99656.00;5093831;28;19924;-80
2022/07/13 07:12:42;;;;;;;;;;;;;;;20.72;100.00;99659.38;5093947;28;19924;-80
2022/07/13 07:15:09;;;;;;;;;;;;;;;21.51;100.00;99647.31;5095367;28;19924;-80
2022/07/13 07:17:43;;;;;;;;;;;;;;;21.04;100.00;99645.22;5094136;28;19928;-80
2022/07/13 07:20:10;;;;;;;;;;;;;;;21.09;100.00;99655.13;5094044;28;19924;-80
2022/07/13 07:22:37;;;;;;;;;;;;;;;21.71;100.00;99638.97;5095252;28;20020;-80
2022/07/13 07:25:04;;;;;;;;;;;;;;;21.29;100.00;99646.81;5094871;28;20026;-80
2022/07/13 07:27:31;;;;;;;;;;;;;;;20.99;100.00;99647.94;5093957;28;19926;-80
2022/07/13 07:29:58;;;;;;;;;;;;;;;21.32;100.00;99640.97;5095081;28;19924;-80
2022/07/13 07:32:26;;;;;;;;;;;;;;;21.59;100.00;99642.84;5095278;28;19924;-80
2022/07/13 07:34:53;;;;;;;;;;;;;;;21.40;100.00;99658.47;5094851;28;19939;-80
2022/07/13 07:37:21;;;;;;;;;;;;;;;21.55;100.00;99653.63;5094870;28;19924;-80
2022/07/13 07:39:49;;;;;;;;;;;;;;;22.09;100.00;99658.91;5093423;28;20414;-80
2022/07/13 07:42:16;;;;;;;;;;;;;;;21.75;100.00;99662.34;5093552;28;20043;-77
2022/07/13 07:44:43;;;;;;;;;;;;;;;21.48;100.00;99668.19;5093583;28;20398;-77
2022/07/13 07:47:10;;;;;;;;;;;;;;;21.29;100.00;99659.00;5093420;28;19924;-77
2022/07/13 07:49:37;;;;;;;;;;;;;;;21.07;100.00;99647.09;5094703;28;20393;-77
2022/07/13 07:52:07;;;;;;;;;;;;;;;20.25;100.00;99659.16;5094643;28;19924;-77
2022/07/13 07:54:54;;;;;;;;;;;;;;;20.12;100.00;99667.00;5094508;28;20001;-77
2022/07/13 07:57:24;;;;;;;;;;;;;;;19.68;100.00;99666.53;5094810;28;19924;-77
2022/07/13 07:59:52;;;;;;;;;;;;;;;19.54;100.00;99670.75;5094575;28;19993;-77
2022/07/13 08:02:19;;;;;;;;;;;;;;;19.87;100.00;99670.16;5127410;27;19925;-77
2022/07/13 08:04:47;;;;;;;;;;;;;;;19.85;100.00;99675.50;5093226;28;20023;-77
2022/07/13 08:07:14;;;;;;;;;;;;;;;19.20;100.00;99676.63;5092710;28;19924;-77
2022/07/13 08:09:41;;;;;;;;;;;;;;;19.19;100.00;99660.88;5093068;28;19928;-77
2022/07/13 08:12:08;;;;;;;;;;;;;;;19.02;100.00;99656.72;5094112;28;19924;-77
2022/07/13 08:14:36;;;;;;;;;;;;;;;19.51;100.00;99662.41;5094131;28;19931;-77
2022/07/13 08:17:03;;;;;;;;;;;;;;;19.78;100.00;99661.66;5092741;28;20348;-77
2022/07/13 08:19:30;;;;;;;;;;;;;;;20.06;100.00;99666.84;5092914;28;19923;-77
2022/07/13 08:22:06;;;;;;;;;;;;;;;19.92;100.00;99669.56;5092900;28;19924;-77
2022/07/13 08:24:33;;;;;;;;;;;;;;;19.70;100.00;99656.28;5064157;28;19924;-76
2022/07/13 08:27:01;;;;;;;;;;;;;;;20.13;100.00;99658.06;5074592;28;19924;-77
2022/07/13 08:29:28;;;;;;;;;;;;;;;19.48;100.00;99657.66;5073687;28;20403;-77
2022/07/13 08:31:55;;;;;;;;;;;;;;;19.66;100.00;99658.50;5092527;28;19946;-76
2022/07/13 08:39:56;;;;;;;;;;;;;;;19.86;100.00;99649.53;5079815;28;20437;-77
2022/07/13 08:42:23;;;;;;;;;;;;;;;20.29;100.00;99643.53;5071210;28;19930;-77
2022/07/13 08:44:50;;;;;;;;;;;;;;;19.99;100.00;99646.53;5072726;28;19924;-77
2022/07/13 08:47:18;;;;;;;;;;;;;;;19.73;100.00;99634.72;5073359;28;19924;-77
2022/07/13 08:49:46;;;;;;;;;;;;;;;19.88;100.00;99655.53;5073512;28;19925;-77
2022/07/13 08:52:13;;;;;;;;;;;;;;;20.41;100.00;99653.13;5071802;28;20010;-77
2022/07/13 08:54:41;;;;;;;;;;;;;;;19.86;100.00;99643.09;5073256;28;19925;-77
2022/07/13 08:57:08;;;;;;;;;;;;;;;19.99;100.00;99660.72;5073265;28;19924;-77
2022/07/13 08:59:35;;;;;;;;;;;;;;;20.14;100.00;99664.53;5070154;28;20387;-77
2022/07/13 09:02:03;;;;;;;;;;;;;;;20.95;100.00;99658.66;5071711;28;20019;-78
2022/07/13 09:04:31;;;;;;;;;;;;;;;20.53;100.00;99664.31;5082274;28;19931;-77
2022/07/13 09:06:58;;;;;;;;;;;;;;;20.40;100.00;99671.44;5093602;28;19924;-77
2022/07/13 09:09:36;;;;;;;;;;;;;;;20.50;100.00;99653.09;5092407;28;19947;-78
2022/07/13 09:12:25;;;;;;;;;;;;;;;20.27;100.00;99665.13;5092518;28;19924;-77
2022/07/13 09:14:54;;;;;;;;;;;;;;;20.23;100.00;99656.00;5092758;28;20327;-77
2022/07/13 09:17:27;;;;;;;;;;;;;;;19.96;100.00;99659.63;5077880;28;19931;-78
2022/07/13 09:19:54;;;;;;;;;;;;;;;20.11;100.00;99649.22;5072310;28;19925;-77
2022/07/13 09:22:21;;;;;;;;;;;;;;;19.87;100.00;99658.81;5072278;28;20402;-77
2022/07/13 09:24:50;;;;;;;;;;;;;;;20.16;100.00;99662.78;5072590;28;20404;-78
2022/07/13 09:27:18;;;;;;;;;;;;;;;19.96;100.00;99665.28;5072122;28;20367;-78
2022/07/13 09:29:45;;;;;;;;;;;;;;;19.80;100.00;99667.63;5072489;28;19928;-77
2022/07/13 09:32:12;;;;;;;;;;;;;;;20.03;100.00;99675.53;5071111;28;20285;-77
2022/07/13 09:34:43;;;;;;;;;;;;;;;20.23;100.00;99673.81;5072039;28;20372;-77
2022/07/13 09:37:11;;;;;;;;;;;;;;;20.57;100.00;99684.78;5072176;28;19935;-78
2022/07/13 09:39:58;;;;;;;;;;;;;;;20.84;100.00;99687.53;5072272;28;19924;-77
2022/07/13 09:42:26;;;;;;;;;;;;;;;20.54;100.00;99682.91;5072227;28;19924;-77
2022/07/13 09:47:47;;;;;;;;;;;;;;;20.64;100.00;99686.50;5070647;28;19928;-78
2022/07/13 09:50:17;;;;;;;;;;;;;;;20.42;100.00;99668.88;5070694;28;19931;-78
2022/07/13 09:52:46;;;;;;;;;;;;;;;20.80;100.00;99683.31;5075976;28;20010;-78
2022/07/13 09:55:16;;;;;;;;;;;;;;;20.71;100.00;99680.50;5108173;28;19924;-78
2022/07/13 09:57:47;;;;;;;;;;;;;;;20.35;100.00;99680.56;5091870;28;19928;-78
2022/07/13 10:00:19;;;;;;;;;;;;;;;20.28;100.00;99689.41;5091066;28;20383;-78
2022/07/13 10:02:47;;;;;;;;;;;;;;;20.65;100.00;99699.44;5092264;28;20542;-78
2022/07/13 10:05:18;;;;;;;;;;;;;;;20.37;100.00;99684.50;5074176;28;20291;-78
2022/07/13 10:07:47;;;;;;;;;;;;;;;20.25;100.00;99687.53;5091393;28;19932;-77
2022/07/13 10:10:15;;;;;;;;;;;;;;;20.98;100.00;99691.78;5092268;28;19931;-78
2022/07/13 10:12:43;;;;;;;;;;;;;;;20.52;100.00;99685.41;5071950;28;19959;-78
2022/07/13 10:15:12;;;;;;;;;;;;;;;20.36;100.00;99693.50;5071847;28;19924;-78
2022/07/13 10:17:40;;;;;;;;;;;;;;;20.59;100.00;99696.47;5071690;28;19924;-78
2022/07/13 10:20:09;;;;;;;;;;;;;;;20.33;100.00;99694.44;5071939;28;19982;-78
2022/07/13 10:22:38;;;;;;;;;;;;;;;20.75;100.00;99703.84;5073479;28;19928;-78
2022/07/13 10:25:06;;;;;;;;;;;;;;;20.48;100.00;99706.72;5075924;28;19925;-78
2022/07/13 10:27:34;;;;;;;;;;;;;;;20.93;100.00;99703.78;5075481;28;20380;-77
2022/07/13 10:30:04;;;;;;;;;;;;;;;20.71;100.00;99709.69;5058107;28;19956;-78
2022/07/13 10:32:49;;;;;;;;;;;;;;;21.04;100.00;99695.56;5074485;28;19928;-78
2022/07/13 10:35:17;;;;;;;;;;;;;;;21.05;100.00;99700.00;5076070;28;19963;-79
2022/07/13 10:37:56;;;;;;;;;;;;;;;20.32;100.00;99719.22;5075880;28;19932;-78
2022/07/13 10:40:31;;;;;;;;;;;;;;;20.93;100.00;99695.28;5075873;28;19926;-78
2022/07/13 10:43:03;;;;;;;;;;;;;;;21.19;100.00;99704.97;5076039;28;19924;-78
2022/07/13 10:45:34;;;;;;;;;;;;;;;20.80;100.00;99700.34;5058512;28;19963;-78
2022/07/13 10:48:03;;;;;;;;;;;;;;;21.50;100.00;99685.56;5075597;28;20031;-77
2022/07/13 10:50:38;;;;;;;;;;;;;;;21.52;100.00;99688.72;5057371;28;20382;-78
2022/07/13 10:53:07;;;;;;;;;;;;;;;21.58;100.00;99683.13;5074693;28;19928;-78
2022/07/13 10:55:46;;;;;;;;;;;;;;;21.49;100.00;99701.03;5075988;28;19970;-77
2022/07/13 10:58:30;;;;;;;;;;;;;;;21.36;100.00;99703.31;5074579;28;19924;-78
2022/07/13 11:00:59;;;;;;;;;;;;;;;20.98;100.00;99700.31;5074697;28;19985;-78
2022/07/13 11:03:31;;;;;;;;;;;;;;;21.03;100.00;99711.03;5075602;28;20424;-77
2022/07/13 11:06:05;;;;;;;;;;;;;;;20.39;100.00;99692.53;5075540;28;19924;-77
2022/07/13 11:08:33;;;;;;;;;;;;;;;20.43;100.00;99707.38;5074270;28;20511;-77
2022/07/13 11:11:17;;;;;;;;;;;;;;;20.38;100.00;99705.16;5074121;28;20437;-77
2022/07/13 11:13:45;;;;;;;;;;;;;;;20.58;100.00;99711.94;5074106;28;20403;-77
2022/07/13 11:16:13;;;;;;;;;;;;;;;21.00;100.00;99700.63;5073767;28;19924;-77
2022/07/13 11:18:41;;;;;;;;;;;;;;;20.95;100.00;99706.94;5075292;28;19929;-77
2022/07/13 11:26:44;;;;;;;;;;;;;;;21.38;100.00;99712.16;5074992;28;19925;-77
2022/07/13 11:29:17;;;;;;;;;;;;;;;21.40;100.00;99699.03;5073502;28;19928;-77
2022/07/13 11:31:45;;;;;;;;;;;;;;;21.16;100.00;99705.91;5074295;28;19924;-77
2022/07/13 11:34:12;;;;;;;;;;;;;;;21.08;100.00;99710.41;5074469;28;20011;-77
2022/07/13 11:36:41;;;;;;;;;;;;;;;20.91;100.00;99712.78;5074182;28;19931;-77
2022/07/13 11:39:21;;;;;;;;;;;;;;;21.17;100.00;99705.44;5074055;28;19924;-77
2022/07/13 11:41:53;;;;;;;;;;;;;;;21.04;100.00;99709.75;5072418;28;20457;-77
2022/07/13 11:44:24;;;;;;;;;;;;;;;21.02;100.00;99709.47;5072736;28;19933;-77
2022/07/13 11:46:54;;;;;;;;;;;;;;;21.25;100.00;99708.72;5073703;28;19924;-77
2022/07/13 11:49:21;;;;;;;;;;;;;;;21.64;100.00;99706.78;5073851;28;19950;-77
2022/07/13 11:51:48;;;;;;;;;;;;;;;21.88;100.00;99691.34;5073712;28;19924;-77
2022/07/13 11:54:17;;;;;;;;;;;;;;;21.71;100.00;99707.22;5089936;28;19931;-77
2022/07/13 11:56:47;;;;;;;;;;;;;;;21.46;100.00;99707.69;5075914;28;19924;-77
2022/07/13 11:59:15;;;;;;;;;;;;;;;21.51;100.00;99692.03;5092623;28;19924;-77
2022/07/13 12:01:50;;;;;;;;;;;;;;;21.57;100.00;99696.56;5093548;28;19932;-77
2022/07/13 12:04:22;;;;;;;;;;;;;;;21.61;100.00;99704.91;5092478;28;20033;-77
2022/07/13 12:06:49;;;;;;;;;;;;;;;21.38;100.00;99700.78;5093564;28;20363;-77
2022/07/13 12:09:17;;;;;;;;;;;;;;;21.71;100.00;99700.72;5093092;28;19928;-78
2022/07/13 12:11:44;;;;;;;;;;;;;;;21.79;100.00;99684.91;5092586;28;19930;-78
2022/07/13 12:14:13;;;;;;;;;;;;;;;21.89;100.00;99689.25;5092578;28;19931;-78
2022/07/13 12:16:40;;;;;;;;;;;;;;;21.96;100.00;99695.34;5093774;28;20275;-78
2022/07/13 12:19:09;;;;;;;;;;;;;;;22.35;100.00;99673.38;5092942;28;19928;-78
2022/07/13 12:21:37;;;;;;;;;;;;;;;22.48;100.00;99674.66;5092903;28;19930;-78
2022/07/13 12:24:05;;;;;;;;;;;;;;;22.09;100.00;99675.19;5092883;28;19924;-78
2022/07/13 12:26:32;;;;;;;;;;;;;;;22.15;100.00;99676.88;5093948;28;19931;-78
2022/07/13 12:29:00;;;;;;;;;;;;;;;21.51;100.00;99664.38;5092372;28;20275;-78
2022/07/13 12:31:27;;;;;;;;;;;;;;;21.84;100.00;99692.78;5092757;28;19935;-78
2022/07/13 12:33:54;;;;;;;;;;;;;;;21.35;100.00;99667.63;5092680;28;19924;-78
2022/07/13 12:36:22;;;;;;;;;;;;;;;22.11;100.00;99675.50;5126731;27;20371;-78
2022/07/13 12:38:57;;;;;;;;;;;;;;;22.16;100.00;99671.97;5093883;28;19970;-78
2022/07/13 12:41:34;;;;;;;;;;;;;;;22.25;100.00;99674.75;5092143;28;19924;-78
2022/07/13 12:44:04;;;;;;;;;;;;;;;22.38;100.00;99670.34;5091527;28;19932;-78
2022/07/13 12:46:50;;;;;;;;;;;;;;;22.31;100.00;99670.72;5092470;28;19924;-78
2022/07/13 12:49:18;;;;;;;;;;;;;;;22.40;100.00;99673.47;5093688;28;19981;-78
2022/07/13 12:51:46;;;;;;;;;;;;;;;22.29;100.00;99667.59;5092275;28;20026;-78
2022/07/13 12:54:14;;;;;;;;;;;;;;;22.15;100.00;99673.25;5093537;28;19930;-78
2022/07/13 12:56:45;;;;;;;;;;;;;;;21.74;100.00;99666.47;5075533;28;19924;-78